Flight Track Log - Related Links

Times and Time Zones

All times are in EDT time to prevent confusion due to time zone crossing. See the N904PA flight status page for this flight to view local times or setup timezone preferences in your user account.

Time Position Orientation Groundspeed Altitude Reporting Facility
EDT Latitude Longitude Course Direction KTS MPH feet Rate Location/Type
Tue 06:07:11 PM 38.5044 -121.7581 111° Southeast 176 203 3,300  Level Oakland Center
Tue 06:08:12 PM 38.4867 -121.6975 111° Southeast 181 208 4,400 1,122 Climbing Oakland Center
Tue 06:09:14 PM 38.4681 -121.6361 111° Southeast 184 212 5,600 1,571 Climbing Oakland Center
Tue 06:09:36 PM 38.4667 -121.6000 93° East 175 201 6,600 1,773 Climbing Northern TRACON
Tue 06:10:42 PM 38.4333 -121.5500 130° Southeast 169 194 8,200 1,339 Climbing Northern TRACON
Tue 06:11:37 PM 38.4167 -121.5000 113° Southeast 180 207 9,300 1,316 Climbing Northern TRACON
Tue 06:12:36 PM 38.3833 -121.4500 130° Southeast 181 208 10,700 1,513 Climbing Northern TRACON
Tue 06:13:36 PM 38.3500 -121.4000 130° Southeast 175 201 12,300 1,350 Climbing Northern TRACON
Tue 06:14:36 PM 38.3333 -121.3500 113° Southeast 179 206 13,400 1,193 Climbing Northern TRACON
Tue 06:16:22 PM 38.2861 -121.2561 123° Southeast 180 207 15,600 1,257 Climbing Oakland Center
Tue 06:17:23 PM 38.2597 -121.2019 122° Southeast 180 207 16,900 1,268 Climbing Oakland Center
Tue 06:18:25 PM 38.2319 -121.1483 123° Southeast 181 208 18,200 1,024 Climbing Oakland Center
Tue 06:19:26 PM 38.1939 -121.0794 125° Southeast 197 227 19,000 639 Climbing Oakland Center
Tue 06:20:27 PM 38.1572 -121.0153 126° Southeast 220 253 19,500 541 Climbing Oakland Center
Tue 06:21:28 PM 38.1200 -120.9467 125° Southeast 232 267 20,100 541 Climbing Oakland Center
Tue 06:22:29 PM 38.0825 -120.8761 124° Southeast 239 275 20,600 439 Climbing Oakland Center
Tue 06:23:31 PM 38.0414 -120.8067 127° Southeast 244 281 21,000 195 Climbing Oakland Center
Tue 06:24:32 PM 37.9872 -120.7433 137° Southeast 259 298 21,000  Level Oakland Center
Tue 06:25:33 PM 37.9344 -120.6731 134° Southeast 274 315 21,000  Level Oakland Center
Tue 06:26:34 PM 37.8817 -120.6031 134° Southeast 277 319 21,000  Level Oakland Center
Tue 06:27:35 PM 37.8300 -120.5350 134° Southeast 270 311 21,000  Level Oakland Center
Tue 06:28:37 PM 37.7786 -120.4658 133° Southeast 269 310 21,000  Level Oakland Center
Tue 06:29:38 PM 37.7161 -120.3883 136° Southeast 265 305 21,000  Level Oakland Center
Tue 06:30:39 PM 37.6658 -120.3169 132° Southeast 269 310 21,000  Level Oakland Center
Tue 06:31:40 PM 37.6142 -120.2511 135° Southeast 266 306 21,000  Level Oakland Center
Tue 06:32:41 PM 37.5494 -120.2053 151° Southeast 268 308 21,000  Level Oakland Center
Tue 06:33:42 PM 37.4817 -120.1650 155° Southeast 269 310 21,000  Level Oakland Center
Tue 06:34:43 PM 37.4133 -120.1253 155° Southeast 271 312 21,000  Level Oakland Center
Tue 06:35:45 PM 37.3456 -120.0850 155° Southeast 269 310 21,000  Level Oakland Center
Tue 06:36:46 PM 37.2772 -120.0450 155° Southeast 270 311 21,000  Level Oakland Center
Tue 06:37:47 PM 37.2094 -120.0053 155° Southeast 270 311 21,000  Level Oakland Center
Tue 06:38:48 PM 37.1411 -119.9650 155° Southeast 271 312 21,000  Level Oakland Center
Tue 06:39:49 PM 37.0672 -119.9219 155° Southeast 267 307 21,000  Level Oakland Center
Tue 06:40:50 PM 36.9983 -119.8825 155° Southeast 270 311 21,000  Level Oakland Center
Tue 06:41:52 PM 36.9294 -119.8417 155° Southeast 274 315 21,000  Level Oakland Center
Tue 06:42:53 PM 36.8608 -119.8022 155° Southeast 273 314 21,000  Level Oakland Center
Tue 06:43:54 PM 36.7917 -119.7628 155° Southeast 273 314 21,000  Level Oakland Center
Tue 06:44:55 PM 36.7225 -119.7214 154° Southeast 274 315 21,000  Level Oakland Center
Tue 06:45:56 PM 36.6533 -119.6817 155° Southeast 273 314 21,000  Level Oakland Center
Tue 06:46:58 PM 36.5694 -119.6342 156° South 274 315 21,000  Level Oakland Center
Tue 06:47:59 PM 36.5011 -119.5939 155° Southeast 273 314 21,000  Level Oakland Center
Tue 06:49:00 PM 36.4322 -119.5547 155° Southeast 271 312 21,000  Level Oakland Center
Tue 06:50:01 PM 36.3617 -119.5147 155° Southeast 276 318 21,000  Level Oakland Center
Tue 06:51:02 PM 36.2914 -119.4742 155° Southeast 278 320 21,000  Level Oakland Center
Tue 06:52:03 PM 36.2217 -119.4336 155° Southeast 277 319 21,000  Level Oakland Center
Tue 06:53:05 PM 36.1511 -119.3939 156° South 278 320 21,000  Level Oakland Center
Tue 06:54:06 PM 36.0794 -119.3528 155° Southeast 284 327 21,000  Level Oakland Center
Tue 06:55:07 PM 36.0067 -119.3128 156° South 284 327 21,000  Level Oakland Center
Tue 06:56:08 PM 35.9350 -119.2728 156° South 281 323 21,000  Level Oakland Center
Tue 06:57:09 PM 35.8622 -119.2317 155° Southeast 285 328 21,000  Level Oakland Center
Tue 06:58:11 PM 35.7747 -119.1822 155° Southeast 287 330 21,000  Level Oakland Center
Tue 06:59:12 PM 35.7011 -119.1397 155° Southeast 290 334 21,000  Level Oakland Center
Tue 07:00:13 PM 35.6281 -119.0997 156° South 289 333 21,000  Level Oakland Center
Tue 07:01:19 PM 35.5533 -119.0578 155° Southeast 292 336 21,000  Level Los Center
Tue 07:02:33 PM 35.4644 -119.0089 156° South 292 336 21,000 -265 Level Los Center
Tue 07:03:35 PM 35.3753 -118.9583 155° Southeast 293 337 20,400 -968 Descending Los Center
Tue 07:04:37 PM 35.2967 -118.9147 156° South 304 350 19,000 -1,306 Descending Los Center
Tue 07:05:39 PM 35.2194 -118.8722 156° South 304 350 17,700 -1,210 Descending Los Center
Tue 07:06:41 PM 35.1439 -118.8311 156° South 299 344 16,500 -1,220 Descending Los Center
Tue 07:07:42 PM 35.0703 -118.7903 156° South 293 337 15,200 -1,220 Descending Los Center
Tue 07:08:44 PM 34.9969 -118.7497 156° South 289 333 14,000 -1,161 Descending Los Center
Tue 07:09:46 PM 34.9258 -118.7117 156° South 281 323 12,800 -1,220 Descending Los Center
Tue 07:10:47 PM 34.8486 -118.6689 156° South 268 308 11,500 -829 Descending Los Center
Tue 07:11:49 PM 34.7833 -118.6342 156° South 254 292 11,100 -677 Descending Los Center
Tue 07:12:51 PM 34.7217 -118.6017 157° South 242 278 10,100 -968 Descending Los Center
Tue 07:13:53 PM 34.6583 -118.5811 165° South 240 276 9,100 -488 Descending Los Center
Tue 07:14:54 PM 34.6006 -118.5878 185° South 210 242 9,100 -244 Level Los Center
Tue 07:15:56 PM 34.5367 -118.5694 167° South 219 252 8,600 -968 Descending Los Center
Tue 07:16:58 PM 34.4783 -118.5478 163° South 226 260 7,100 -1,317 Descending Los Center
Tue 07:17:59 PM 34.4297 -118.5361 169° South 222 255 5,900 -1,415 Descending Los Center
Tue 07:19:01 PM 34.3622 -118.5219 170° South 206 237 4,200 -1,394 Descending Los Center
Tue 07:19:38 PM 34.3167 -118.5167 175° South 199 229 3,600 -796 Descending Southern TRACON
Tue 07:20:39 PM 34.2833 -118.5000 158° South 158 182 2,900 -843 Descending Southern TRACON
Tue 07:21:39 PM 34.2333 -118.5000 180° South 126 145 1,900 -1,000 Descending Southern TRACON
Tue 07:24:00 PM 34.2098 -118.4900 180° South  Level Estimated
Tue 07:31:00 PM 34.2098 -118.4900 180° South  Level Estimated

Login

Don't have an account? Register now (free) for customized features, flight alerts, and more!